Airfield :
LOGIN :

Register | Disclaimer

   EN    FR    IT 

 










Legend :    VFR   Marginal VFR   IFR   Intensive IFR   Very Intensive IFR
Visi :
Ceiling :
>= 8 km
>= 3000ft
5 to 8 km
1000 to 3000 ft
1500m to 5 km
500 to 1000 ft
800 to 1500m
200 to 500 ft
< 800m
< 200 ft
Symbols :   Thunderstorms  Fog  Heavy snow  Heavy precipitations  Wind > 20 kt
SIGMETs :     Misc.  Thunderstorms  Icing  Turbulence  Mountain Waves  Volcanic Ashes






- Airport Elevation : 325 ft
- IATA code : BES


LFRB - Brest

CURRENT METAR :
  • 280000Z AUTO 24016KT 9999 FEW032 12/07 Q1006 TEMPO 24018G33KT 4000 SHRA SCT015CB BKN018TCU

EXPIRED METARs :
  • 272330Z AUTO 24016KT 9999 SCT033 BKN040 12/08 Q1006 TEMPO 24018G33KT 4000 SHRA SCT015CB BKN018TCU
  • 272300Z AUTO 23015KT 9999 FEW032/// BKN210/// BKN240/// ///TCU 12/08 Q1006 BECMG 25015G25KT BKN030
  • 272230Z AUTO 23017KT 9999 FEW033/// SCT039/// BKN049/// ///CB 12/09 Q1006
  • 272200Z AUTO 23013KT 9999 SCT049 SCT250 11/09 Q1006 BECMG 25015G25KT

TAF TAF LFRB
Valid from the 28 at 00:00 until the 29 at 06:00 UTC


272300Z 2800/2906 23015KT 9999 SCT025 SCT050
TEMPO 2800/2821 24018G33KT 4000 SHRA SCT015CB BKN018TCU
ATIS : +33 2 98 32 02 71



MET'MAP, your aeronautical weather chart ! - Copyright ORBIFLY December 2007 - Disclaimer

ORBIFLY MET'MAP TEAM :

Programming & Development : Alexandra Zaïnal
Concept & original design : Baudouin d'Aumeries
Assistance for programming : Marc-Olivier Méhu
Technical & hardware support : Manuel Goepfert

Contact : metmap@orbifly.com




SOURCES & CREDITS :

   NOAA